• Join FlightAware (Why Join?)
  • Login
  • US Flag 
01:04PM EDT


 

Airport Tracker/Info


-or-


 

Live Flight TrackerFlight Track Log ✈ N865JM ✈ 10-Oct-2013 ✈ MKJS / MBJ - KFLL

Flight Track Log - Related Links

Times and Time Zones

All times are in EDT time to prevent confusion due to time zone crossing. See the N865JM flight status page for this flight to view local times or setup timezone preferences in your user account.

Time Position Orientation Groundspeed Altitude Reporting Facility
EDT Latitude Longitude Course Direction KTS MPH feet Rate Location/Type
07:52PM 24.1170 -79.5490 345° North  Level Estimated
07:53PM 24.2179 -79.5797 345° North  Level Estimated
07:53PM 23.2472 -78.8961 344° North 428 493 38,000  Level Miami Center
07:54PM 24.3188 -79.6104 344° North  Level Estimated
07:54PM 23.3806 -78.9278 348° North 451 519 38,000  Level Miami Center
07:55PM 24.4196 -79.6412 344° North  Level Estimated
07:55PM 23.5014 -78.9569 348° North 456 525 38,000  Level Miami Center
07:56PM 24.5205 -79.6720 344° North  Level Estimated
07:56PM 23.6242 -78.9839 349° North 451 519 38,000  Level Miami Center
07:57PM 24.6213 -79.7028 344° North  Level Estimated
07:57PM 23.7514 -79.0156 347° North 450 518 38,000  Level Miami Center
07:58PM 24.7221 -79.7337 344° North  Level Estimated
07:58PM 23.8700 -79.0403 349° North 445 512 38,000  Level Miami Center
07:59PM 24.8230 -79.7646 344° North  Level Estimated
07:59PM 23.9928 -79.0719 347° North 445 512 38,000  Level Miami Center
08:00PM 24.1181 -79.0856 354° North 444 511 38,000  Level Miami Center
08:01PM 24.2469 -79.1219 346° North 449 517 38,000 -420 Level Miami Center
08:02PM 24.3656 -79.1583 344° North 459 528 37,200 -1,080 Descending Miami Center
08:03PM 24.4942 -79.2133 339° North 463 533 35,900 -1,800 Descending Miami Center
08:04PM 24.5917 -79.2722 331° Northwest 463 533 33,600 -2,520 Descending Miami Center
08:05PM 24.6992 -79.3314 333° Northwest 445 512 30,900 -2,700 Descending Miami Center
08:06PM 24.8200 -79.3636 346° North 437 503 28,200 -2,700 Descending Miami Center
08:07PM 24.9406 -79.3936 347° North 437 503 25,600 -2,580 Descending Miami Center
08:08PM 25.0694 -79.4283 346° North 437 503 23,100 -1,500 Descending Miami Center
08:09PM 25.1797 -79.4558 347° North 416 479 22,600 -1,740 Descending Miami Center
08:10PM 25.2942 -79.4858 347° North 411 473 19,700 -3,120 Descending Miami Center
08:11PM 25.4044 -79.5158 346° North 411 473 16,400 -3,120 Descending Miami Center
08:12PM 25.4978 -79.5433 345° North 366 421 13,700 -2,940 Descending Miami Center
08:12PM 25.5064 -79.5411 13° North 399 459 13,500 -2,340 Descending Miami Center
08:13PM 25.5853 -79.5658 344° North 353 406 11,600 -2,340 Descending Miami Center
08:13PM 25.6019 -79.5686 351° North 377 434 11,200 -2,340 Descending Miami Center
08:14PM 25.6892 -79.5936 346° North 318 366 9,000 -2,340 Descending Miami Center
08:14PM 25.6914 -79.5914 42° Northeast 345 397 8,900 -1,800 Descending Miami Center
08:15PM 25.7722 -79.6139 346° North 317 365 7,200 -1,560 Descending Miami Center
08:15PM 25.7764 -79.6164 332° Northwest 282 325 7,200 -1,140 Level Miami Center
08:16PM 25.8428 -79.6386 343° North 285 328 6,100 -1,200 Descending Miami Center
08:16PM 25.8386 -79.6386 180° South 270 311 6,100 -420 Level Miami Center
08:17PM 25.8708 -79.7108 296° West 241 277 5,700 -480 Descending Miami Center
08:17PM 25.8725 -79.7247 278° West 263 303 5,600 -1,200 Descending Miami Center
08:18PM 25.9006 -79.7878 296° West 246 283 4,500 -1,200 Descending Miami Center
08:18PM 25.8983 -79.8017 260° West 265 305 4,400 -540 Descending Miami Center
08:19PM 25.9200 -79.8622 292° West 267 307 4,000 -600 Descending Miami Center
08:19PM 25.9219 -79.8622 360° North 258 297 3,900  Descending Miami Center
08:20PM 25.9433 -79.9414 287° West 255 293 4,000  Climbing Miami Center
08:20PM 25.9456 -79.9392 42° Northeast 263 303 3,900 -120 Descending Miami Center
08:21PM 25.9711 -80.0183 290° West 269 310 3,900  Level Miami Center
08:21PM 25.9728 -80.0322 278° West 271 312 3,900 60 Level Miami Center
08:22PM 25.9881 -80.1042 283° West 259 298 4,000 -420 Climbing Miami Center
08:23PM 25.9883 -80.1783 270° West 224 258 3,100 -540 Descending Miami Center
08:24PM 25.9908 -80.2544 272° West 222 255 3,000 -300 Descending Miami Center
08:26PM 26.0122 -80.3153 291° West 203 234 2,500 -480 Descending Miami Center
08:27PM 26.0522 -80.3047 13° North 128 147 2,000 -300 Descending Miami Center
08:27PM 26.0694 -80.2800 52° Northeast 138 159 2,000 -300 Level Miami Center
08:28PM 26.0747 -80.2408 81° East 118 136 1,500 -600 Descending Miami Center
08:29PM 26.0756 -80.2036 89° East 118 136 900 -600 Descending Miami Center
08:31PM 26.0667 -80.1500 90° East  Level FlightAware Approximate
08:38PM 26.0726 -80.1527 90° East  Level Estimated